sensor_id;sensor_type;location;lat;lon;timestamp;P1;durP1;ratioP1;P2;durP2;ratioP2
67712;SDS011;67640;55.784;49.138;2023-02-28T00:01:54;11.22;;;4.72;;
67712;SDS011;67640;55.784;49.138;2023-02-28T00:07:13;13.27;;;5.20;;
67712;SDS011;67640;55.784;49.138;2023-02-28T00:12:32;11.33;;;5.00;;
67712;SDS011;67640;55.784;49.138;2023-02-28T00:17:49;12.35;;;5.30;;
67712;SDS011;67640;55.784;49.138;2023-02-28T00:22:54;11.70;;;5.03;;
67712;SDS011;67640;55.784;49.138;2023-02-28T00:28:13;13.35;;;5.08;;
67712;SDS011;67640;55.784;49.138;2023-02-28T00:33:32;13.18;;;4.35;;
67712;SDS011;67640;55.784;49.138;2023-02-28T00:38:51;11.57;;;4.33;;
67712;SDS011;67640;55.784;49.138;2023-02-28T00:44:11;11.93;;;4.47;;
67712;SDS011;67640;55.784;49.138;2023-02-28T00:49:15;13.33;;;4.33;;
67712;SDS011;67640;55.784;49.138;2023-02-28T00:54:33;11.00;;;4.23;;
67712;SDS011;67640;55.784;49.138;2023-02-28T00:59:38;14.85;;;4.97;;
67712;SDS011;67640;55.784;49.138;2023-02-28T01:04:57;12.97;;;4.73;;
67712;SDS011;67640;55.784;49.138;2023-02-28T01:10:16;16.80;;;4.58;;
67712;SDS011;67640;55.784;49.138;2023-02-28T01:15:35;11.55;;;4.42;;
67712;SDS011;67640;55.784;49.138;2023-02-28T01:20:54;9.90;;;3.93;;
67712;SDS011;67640;55.784;49.138;2023-02-28T01:31:24;11.90;;;4.77;;
67712;SDS011;67640;55.784;49.138;2023-02-28T01:36:43;12.55;;;4.22;;
67712;SDS011;67640;55.784;49.138;2023-02-28T01:42:02;10.53;;;3.60;;
67712;SDS011;67640;55.784;49.138;2023-02-28T01:47:21;9.15;;;3.60;;
67712;SDS011;67640;55.784;49.138;2023-02-28T01:52:27;10.18;;;4.22;;
67712;SDS011;67640;55.784;49.138;2023-02-28T02:03:08;9.58;;;3.35;;
67712;SDS011;67640;55.784;49.138;2023-02-28T02:30:41;8.53;;;3.37;;
67712;SDS011;67640;55.784;49.138;2023-02-28T02:46:47;13.90;;;4.37;;
67712;SDS011;67640;55.784;49.138;2023-02-28T02:52:08;11.48;;;4.00;;
67712;SDS011;67640;55.784;49.138;2023-02-28T02:57:15;11.68;;;4.70;;
67712;SDS011;67640;55.784;49.138;2023-02-28T03:02:34;9.80;;;3.42;;
67712;SDS011;67640;55.784;49.138;2023-02-28T03:07:54;8.58;;;3.30;;
67712;SDS011;67640;55.784;49.138;2023-02-28T03:35:30;10.58;;;3.47;;
67712;SDS011;67640;55.784;49.138;2023-02-28T03:40:36;8.55;;;3.45;;
67712;SDS011;67640;55.784;49.138;2023-02-28T03:46:09;9.90;;;3.60;;
67712;SDS011;67640;55.784;49.138;2023-02-28T03:51:15;9.20;;;3.47;;
67712;SDS011;67640;55.784;49.138;2023-02-28T03:56:37;9.18;;;3.60;;
67712;SDS011;67640;55.784;49.138;2023-02-28T04:07:34;8.50;;;2.92;;
67712;SDS011;67640;55.784;49.138;2023-02-28T04:12:42;7.70;;;3.10;;
67712;SDS011;67640;55.784;49.138;2023-02-28T04:17:48;7.15;;;3.05;;
67712;SDS011;67640;55.784;49.138;2023-02-28T04:23:05;6.97;;;2.95;;
67712;SDS011;67640;55.784;49.138;2023-02-28T04:28:11;9.20;;;3.05;;
67712;SDS011;67640;55.784;49.138;2023-02-28T04:33:32;8.03;;;3.30;;
67712;SDS011;67640;55.784;49.138;2023-02-28T04:44:11;9.08;;;3.25;;
67712;SDS011;67640;55.784;49.138;2023-02-28T04:49:17;10.33;;;3.90;;
67712;SDS011;67640;55.784;49.138;2023-02-28T04:54:23;10.53;;;3.85;;
67712;SDS011;67640;55.784;49.138;2023-02-28T04:59:27;8.33;;;3.98;;
67712;SDS011;67640;55.784;49.138;2023-02-28T05:04:43;8.58;;;2.98;;
67712;SDS011;67640;55.784;49.138;2023-02-28T05:10:02;9.65;;;3.50;;
67712;SDS011;67640;55.784;49.138;2023-02-28T05:15:08;22.57;;;4.80;;
67712;SDS011;67640;55.784;49.138;2023-02-28T05:20:26;9.43;;;3.77;;
67712;SDS011;67640;55.784;49.138;2023-02-28T05:25:32;11.45;;;3.87;;
67712;SDS011;67640;55.784;49.138;2023-02-28T05:30:51;13.57;;;4.63;;
67712;SDS011;67640;55.784;49.138;2023-02-28T05:36:10;11.35;;;4.25;;
67712;SDS011;67640;55.784;49.138;2023-02-28T05:41:15;11.83;;;5.10;;
67712;SDS011;67640;55.784;49.138;2023-02-28T05:46:33;12.28;;;4.45;;
67712;SDS011;67640;55.784;49.138;2023-02-28T05:51:39;12.37;;;4.47;;
67712;SDS011;67640;55.784;49.138;2023-02-28T05:56:58;13.05;;;4.70;;
67712;SDS011;67640;55.784;49.138;2023-02-28T06:02:03;11.33;;;4.27;;
67712;SDS011;67640;55.784;49.138;2023-02-28T06:07:26;14.77;;;5.00;;
67712;SDS011;67640;55.784;49.138;2023-02-28T06:12:31;11.40;;;4.53;;
67712;SDS011;67640;55.784;49.138;2023-02-28T06:17:50;9.90;;;4.03;;
67712;SDS011;67640;55.784;49.138;2023-02-28T06:23:09;11.53;;;4.87;;
67712;SDS011;67640;55.784;49.138;2023-02-28T06:28:28;13.80;;;4.37;;
67712;SDS011;67640;55.784;49.138;2023-02-28T06:33:48;12.30;;;4.80;;
67712;SDS011;67640;55.784;49.138;2023-02-28T06:38:53;10.08;;;3.85;;
67712;SDS011;67640;55.784;49.138;2023-02-28T06:49:27;6.80;;;2.77;;
67712;SDS011;67640;55.784;49.138;2023-02-28T06:54:33;11.65;;;3.60;;
67712;SDS011;67640;55.784;49.138;2023-02-28T06:59:47;7.00;;;2.08;;
67712;SDS011;67640;55.784;49.138;2023-02-28T07:05:08;8.38;;;3.17;;
67712;SDS011;67640;55.784;49.138;2023-02-28T07:10:27;5.53;;;2.60;;
67712;SDS011;67640;55.784;49.138;2023-02-28T07:15:52;10.43;;;3.20;;
67712;SDS011;67640;55.784;49.138;2023-02-28T07:21:07;11.30;;;3.08;;
67712;SDS011;67640;55.784;49.138;2023-02-28T07:26:14;10.38;;;3.58;;
67712;SDS011;67640;55.784;49.138;2023-02-28T07:31:21;9.30;;;2.95;;
67712;SDS011;67640;55.784;49.138;2023-02-28T07:36:40;7.75;;;2.58;;
67712;SDS011;67640;55.784;49.138;2023-02-28T07:41:59;7.73;;;2.87;;
67712;SDS011;67640;55.784;49.138;2023-02-28T07:47:18;9.05;;;2.70;;
67712;SDS011;67640;55.784;49.138;2023-02-28T07:52:23;8.03;;;2.17;;
67712;SDS011;67640;55.784;49.138;2023-02-28T07:57:29;4.72;;;1.42;;
67712;SDS011;67640;55.784;49.138;2023-02-28T08:03:04;6.08;;;1.75;;
67712;SDS011;67640;55.784;49.138;2023-02-28T08:08:10;6.25;;;2.17;;
67712;SDS011;67640;55.784;49.138;2023-02-28T08:13:29;6.30;;;1.87;;
67712;SDS011;67640;55.784;49.138;2023-02-28T08:18:49;4.90;;;1.70;;
67712;SDS011;67640;55.784;49.138;2023-02-28T08:24:09;5.80;;;1.80;;
67712;SDS011;67640;55.784;49.138;2023-02-28T08:29:28;9.18;;;2.70;;
67712;SDS011;67640;55.784;49.138;2023-02-28T08:34:45;7.50;;;2.62;;
67712;SDS011;67640;55.784;49.138;2023-02-28T08:39:50;8.33;;;2.67;;
67712;SDS011;67640;55.784;49.138;2023-02-28T08:45:10;9.75;;;3.62;;
67712;SDS011;67640;55.784;49.138;2023-02-28T08:50:29;8.13;;;2.90;;
67712;SDS011;67640;55.784;49.138;2023-02-28T08:55:55;8.50;;;2.50;;
67712;SDS011;67640;55.784;49.138;2023-02-28T09:01:44;6.33;;;1.90;;
67712;SDS011;67640;55.784;49.138;2023-02-28T09:06:48;10.60;;;3.10;;
67712;SDS011;67640;55.784;49.138;2023-02-28T09:12:07;6.30;;;2.13;;
67712;SDS011;67640;55.784;49.138;2023-02-28T09:17:26;4.60;;;1.70;;
67712;SDS011;67640;55.784;49.138;2023-02-28T09:22:45;5.67;;;1.80;;
67712;SDS011;67640;55.784;49.138;2023-02-28T09:28:04;4.15;;;1.45;;
67712;SDS011;67640;55.784;49.138;2023-02-28T09:33:09;3.85;;;1.30;;
67712;SDS011;67640;55.784;49.138;2023-02-28T09:38:28;6.05;;;1.98;;
67712;SDS011;67640;55.784;49.138;2023-02-28T09:43:49;6.87;;;1.90;;
67712;SDS011;67640;55.784;49.138;2023-02-28T09:49:11;4.97;;;1.52;;
67712;SDS011;67640;55.784;49.138;2023-02-28T09:54:39;4.90;;;1.25;;
67712;SDS011;67640;55.784;49.138;2023-02-28T10:05:22;6.47;;;1.30;;
67712;SDS011;67640;55.784;49.138;2023-02-28T10:27:21;3.58;;;1.37;;
67712;SDS011;67640;55.784;49.138;2023-02-28T10:32:42;4.83;;;1.65;;
67712;SDS011;67640;55.784;49.138;2023-02-28T10:37:49;9.07;;;2.50;;
67712;SDS011;67640;55.784;49.138;2023-02-28T11:11:05;9.18;;;3.35;;
67712;SDS011;67640;55.784;49.138;2023-02-28T11:16:12;6.90;;;2.60;;
67712;SDS011;67640;55.784;49.138;2023-02-28T11:21:20;7.20;;;2.87;;
67712;SDS011;67640;55.784;49.138;2023-02-28T11:37:56;5.15;;;1.70;;
67712;SDS011;67640;55.784;49.138;2023-02-28T12:27:29;7.95;;;1.80;;
67712;SDS011;67640;55.784;49.138;2023-02-28T12:49:12;4.80;;;1.65;;
67712;SDS011;67640;55.784;49.138;2023-02-28T12:59:38;6.40;;;2.42;;
67712;SDS011;67640;55.784;49.138;2023-02-28T13:10:21;6.62;;;2.40;;
67712;SDS011;67640;55.784;49.138;2023-02-28T13:15:27;9.58;;;2.98;;
67712;SDS011;67640;55.784;49.138;2023-02-28T13:20:34;8.78;;;2.45;;
67712;SDS011;67640;55.784;49.138;2023-02-28T13:25:53;7.77;;;2.50;;
67712;SDS011;67640;55.784;49.138;2023-02-28T13:31:20;4.70;;;1.63;;
67712;SDS011;67640;55.784;49.138;2023-02-28T13:36:39;4.80;;;1.92;;
67712;SDS011;67640;55.784;49.138;2023-02-28T14:09:39;5.40;;;1.65;;
67712;SDS011;67640;55.784;49.138;2023-02-28T14:31:37;8.13;;;2.20;;
67712;SDS011;67640;55.784;49.138;2023-02-28T14:36:42;5.73;;;1.70;;
67712;SDS011;67640;55.784;49.138;2023-02-28T14:42:00;4.67;;;1.60;;
67712;SDS011;67640;55.784;49.138;2023-02-28T14:47:13;6.08;;;2.30;;
67712;SDS011;67640;55.784;49.138;2023-02-28T14:52:42;8.05;;;1.70;;
67712;SDS011;67640;55.784;49.138;2023-02-28T14:57:52;7.30;;;2.27;;
67712;SDS011;67640;55.784;49.138;2023-02-28T15:14:20;4.97;;;1.93;;
67712;SDS011;67640;55.784;49.138;2023-02-28T15:19:41;5.67;;;2.05;;
67712;SDS011;67640;55.784;49.138;2023-02-28T15:24:53;5.75;;;2.12;;
67712;SDS011;67640;55.784;49.138;2023-02-28T15:30:17;6.87;;;2.10;;
67712;SDS011;67640;55.784;49.138;2023-02-28T15:35:42;6.40;;;2.00;;
67712;SDS011;67640;55.784;49.138;2023-02-28T15:46:28;8.30;;;2.50;;
67712;SDS011;67640;55.784;49.138;2023-02-28T15:51:49;9.95;;;2.60;;
67712;SDS011;67640;55.784;49.138;2023-02-28T16:02:36;5.87;;;2.20;;
67712;SDS011;67640;55.784;49.138;2023-02-28T16:07:43;6.08;;;1.85;;
67712;SDS011;67640;55.784;49.138;2023-02-28T16:12:48;7.53;;;1.83;;
67712;SDS011;67640;55.784;49.138;2023-02-28T16:18:08;7.58;;;2.55;;
67712;SDS011;67640;55.784;49.138;2023-02-28T16:23:28;7.33;;;2.58;;
67712;SDS011;67640;55.784;49.138;2023-02-28T16:28:47;7.30;;;2.58;;
67712;SDS011;67640;55.784;49.138;2023-02-28T16:33:52;9.98;;;3.00;;
67712;SDS011;67640;55.784;49.138;2023-02-28T16:39:13;8.40;;;2.40;;
67712;SDS011;67640;55.784;49.138;2023-02-28T16:50:08;9.08;;;2.72;;
67712;SDS011;67640;55.784;49.138;2023-02-28T16:55:23;9.58;;;2.98;;
67712;SDS011;67640;55.784;49.138;2023-02-28T17:00:29;8.03;;;2.58;;
67712;SDS011;67640;55.784;49.138;2023-02-28T17:05:47;8.55;;;2.85;;
67712;SDS011;67640;55.784;49.138;2023-02-28T17:10:52;8.33;;;2.53;;
67712;SDS011;67640;55.784;49.138;2023-02-28T17:15:57;7.33;;;2.40;;
67712;SDS011;67640;55.784;49.138;2023-02-28T17:21:02;7.73;;;2.67;;
67712;SDS011;67640;55.784;49.138;2023-02-28T17:26:21;9.80;;;2.55;;
67712;SDS011;67640;55.784;49.138;2023-02-28T17:31:55;7.37;;;2.27;;
67712;SDS011;67640;55.784;49.138;2023-02-28T17:37:00;7.10;;;2.60;;
67712;SDS011;67640;55.784;49.138;2023-02-28T17:42:19;8.38;;;2.60;;
67712;SDS011;67640;55.784;49.138;2023-02-28T17:47:38;6.78;;;2.20;;
67712;SDS011;67640;55.784;49.138;2023-02-28T17:52:58;5.97;;;2.27;;
67712;SDS011;67640;55.784;49.138;2023-02-28T17:58:15;7.47;;;2.30;;
67712;SDS011;67640;55.784;49.138;2023-02-28T18:03:21;7.90;;;2.40;;
67712;SDS011;67640;55.784;49.138;2023-02-28T18:08:39;6.97;;;2.58;;
67712;SDS011;67640;55.784;49.138;2023-02-28T18:13:45;7.20;;;2.33;;
67712;SDS011;67640;55.784;49.138;2023-02-28T18:18:51;9.73;;;3.20;;
67712;SDS011;67640;55.784;49.138;2023-02-28T18:23:56;13.72;;;2.87;;
67712;SDS011;67640;55.784;49.138;2023-02-28T18:34:40;10.28;;;3.27;;
67712;SDS011;67640;55.784;49.138;2023-02-28T18:39:59;10.40;;;3.60;;
67712;SDS011;67640;55.784;49.138;2023-02-28T18:45:05;8.13;;;2.70;;
67712;SDS011;67640;55.784;49.138;2023-02-28T18:50:23;9.63;;;3.50;;
67712;SDS011;67640;55.784;49.138;2023-02-28T18:55:30;11.30;;;3.58;;
67712;SDS011;67640;55.784;49.138;2023-02-28T19:00:49;10.27;;;3.00;;
67712;SDS011;67640;55.784;49.138;2023-02-28T19:06:09;9.40;;;3.15;;
67712;SDS011;67640;55.784;49.138;2023-02-28T19:11:33;11.15;;;3.27;;
67712;SDS011;67640;55.784;49.138;2023-02-28T19:16:57;8.73;;;3.35;;
67712;SDS011;67640;55.784;49.138;2023-02-28T19:22:21;10.72;;;3.27;;
67712;SDS011;67640;55.784;49.138;2023-02-28T19:27:45;8.90;;;3.07;;
67712;SDS011;67640;55.784;49.138;2023-02-28T19:33:09;7.00;;;2.58;;
67712;SDS011;67640;55.784;49.138;2023-02-28T19:38:33;8.00;;;2.95;;
67712;SDS011;67640;55.784;49.138;2023-02-28T19:43:52;9.25;;;2.70;;
67712;SDS011;67640;55.784;49.138;2023-02-28T19:49:15;9.55;;;2.72;;
67712;SDS011;67640;55.784;49.138;2023-02-28T19:54:34;9.47;;;2.83;;
67712;SDS011;67640;55.784;49.138;2023-02-28T19:59:56;8.33;;;2.85;;
67712;SDS011;67640;55.784;49.138;2023-02-28T20:05:16;7.70;;;3.05;;
67712;SDS011;67640;55.784;49.138;2023-02-28T20:11:00;9.20;;;2.77;;
67712;SDS011;67640;55.784;49.138;2023-02-28T20:16:03;8.18;;;2.52;;
67712;SDS011;67640;55.784;49.138;2023-02-28T20:21:10;6.43;;;2.40;;
67712;SDS011;67640;55.784;49.138;2023-02-28T20:26:16;7.40;;;2.30;;
67712;SDS011;67640;55.784;49.138;2023-02-28T20:31:35;8.20;;;2.52;;
67712;SDS011;67640;55.784;49.138;2023-02-28T20:36:52;9.93;;;2.67;;
67712;SDS011;67640;55.784;49.138;2023-02-28T20:41:58;6.80;;;2.10;;
67712;SDS011;67640;55.784;49.138;2023-02-28T20:47:03;9.10;;;2.37;;
67712;SDS011;67640;55.784;49.138;2023-02-28T20:52:23;6.42;;;2.62;;
67712;SDS011;67640;55.784;49.138;2023-02-28T20:57:28;8.75;;;2.65;;
67712;SDS011;67640;55.784;49.138;2023-02-28T21:02:47;12.05;;;3.25;;
67712;SDS011;67640;55.784;49.138;2023-02-28T21:08:06;7.13;;;2.90;;
67712;SDS011;67640;55.784;49.138;2023-02-28T21:13:25;7.92;;;2.90;;
67712;SDS011;67640;55.784;49.138;2023-02-28T21:18:45;6.97;;;2.55;;
67712;SDS011;67640;55.784;49.138;2023-02-28T21:23:51;11.00;;;3.50;;
67712;SDS011;67640;55.784;49.138;2023-02-28T21:28:57;9.15;;;3.17;;
67712;SDS011;67640;55.784;49.138;2023-02-28T21:34:15;9.63;;;3.17;;
67712;SDS011;67640;55.784;49.138;2023-02-28T21:39:22;8.47;;;2.73;;
67712;SDS011;67640;55.784;49.138;2023-02-28T21:44:28;8.60;;;2.62;;
67712;SDS011;67640;55.784;49.138;2023-02-28T21:49:32;10.90;;;2.90;;
67712;SDS011;67640;55.784;49.138;2023-02-28T21:54:52;15.53;;;3.45;;
67712;SDS011;67640;55.784;49.138;2023-02-28T22:00:11;11.05;;;3.45;;
67712;SDS011;67640;55.784;49.138;2023-02-28T22:05:16;9.53;;;2.87;;
67712;SDS011;67640;55.784;49.138;2023-02-28T22:10:22;11.20;;;2.70;;
67712;SDS011;67640;55.784;49.138;2023-02-28T22:15:29;11.43;;;3.27;;
67712;SDS011;67640;55.784;49.138;2023-02-28T22:26:34;11.43;;;2.98;;
67712;SDS011;67640;55.784;49.138;2023-02-28T22:31:40;11.75;;;2.42;;
67712;SDS011;67640;55.784;49.138;2023-02-28T22:36:46;6.97;;;2.85;;
67712;SDS011;67640;55.784;49.138;2023-02-28T22:41:56;9.08;;;2.62;;
67712;SDS011;67640;55.784;49.138;2023-02-28T22:47:15;8.27;;;2.77;;
67712;SDS011;67640;55.784;49.138;2023-02-28T22:52:32;6.53;;;2.33;;
67712;SDS011;67640;55.784;49.138;2023-02-28T22:57:37;7.95;;;2.35;;
67712;SDS011;67640;55.784;49.138;2023-02-28T23:03:07;6.22;;;2.47;;
67712;SDS011;67640;55.784;49.138;2023-02-28T23:08:12;7.13;;;2.40;;
67712;SDS011;67640;55.784;49.138;2023-02-28T23:13:40;9.00;;;2.50;;
67712;SDS011;67640;55.784;49.138;2023-02-28T23:18:45;9.15;;;2.80;;
67712;SDS011;67640;55.784;49.138;2023-02-28T23:23:52;9.53;;;2.40;;
67712;SDS011;67640;55.784;49.138;2023-02-28T23:28:58;7.83;;;2.33;;
67712;SDS011;67640;55.784;49.138;2023-02-28T23:34:17;8.20;;;2.72;;
67712;SDS011;67640;55.784;49.138;2023-02-28T23:39:36;7.03;;;2.20;;
67712;SDS011;67640;55.784;49.138;2023-02-28T23:44:42;8.28;;;2.17;;
67712;SDS011;67640;55.784;49.138;2023-02-28T23:50:01;6.47;;;2.50;;
67712;SDS011;67640;55.784;49.138;2023-02-28T23:55:07;5.08;;;2.05;;
